Aérodrome :
LOGIN :

S'inscrire | Disclaimer

   EN    FR    IT 

 










Légende :    VFR   VFR Marginal   IFR   IFR Intensif   IFR Très Intensif
Visi : 
Plafond : 
>= 8 km
>= 3000ft
5 à 8 km
1000 à 3000 ft
1500m à 5 km
500 à 1000 ft
800 à 1500m
200 à 500 ft
< 800m
< 200 ft
Symboles :   Orages  Brouillard  Fortes neiges  Fortes précipitations  Vent > 20 kt
SIGMETs :   Divers  Orages  Givrage  Turbulence  Onde Orograph.  Cendres Volcan.






- Altitude de l'aérodrome : 364 ft


LFAQ - Albert Bray

DERNIER METAR :
  • 140130Z AUTO 14018KT 9999 -DZ FEW023/// SCT033/// BKN039/// ///TCU 06/04 Q0993

METARs EXPIRÉS :
  • 140100Z AUTO 14017KT 9999 SCT042 BKN064 BKN082 06/04 Q0993
  • 140030Z AUTO 15016KT 9999 FEW017 SCT042 BKN054 06/04 Q0994
  • 140000Z AUTO 15016KT 9999 BKN016 BKN068 BKN078 06/04 Q0994
  • 132330Z AUTO 15013KT 9999 BKN015 BKN082 BKN100 05/04 Q0995
  • 132300Z AUTO 14012KT CAVOK 05/04 Q0995

Prévision TAF périmée.



MET'MAP, la Météo Aéronautique d'un coup d'oeil ! - Copyright ORBIFLY Décembre 2007 - Disclaimer

ORBIFLY MET'MAP TEAM :

Programmation & Développement : Alexandra Zaïnal
Conception & Développement : Baudouin d'Aumeries
Co-Programmation & Développement : Marc-Olivier Méhu
Soutien technique & logistique : Manuel Goepfert

Contact : metmap@orbifly.com




SOURCES & CREDITS :

   NOAA